sensor_id;sensor_type;location;lat;lon;timestamp;P1;durP1;ratioP1;P2;durP2;ratioP2
8594;SDS011;4335;48.860;9.198;2023-12-20T00:00:07;1.70;;;1.60;;
8594;SDS011;4335;48.860;9.198;2023-12-20T00:02:35;2.43;;;2.10;;
8594;SDS011;4335;48.860;9.198;2023-12-20T00:05:03;2.43;;;2.23;;
8594;SDS011;4335;48.860;9.198;2023-12-20T00:07:31;2.00;;;1.70;;
8594;SDS011;4335;48.860;9.198;2023-12-20T00:09:58;2.47;;;2.00;;
8594;SDS011;4335;48.860;9.198;2023-12-20T00:12:26;2.07;;;1.90;;
8594;SDS011;4335;48.860;9.198;2023-12-20T00:14:55;2.33;;;2.13;;
8594;SDS011;4335;48.860;9.198;2023-12-20T00:17:26;2.37;;;1.97;;
8594;SDS011;4335;48.860;9.198;2023-12-20T00:19:54;2.13;;;1.70;;
8594;SDS011;4335;48.860;9.198;2023-12-20T00:22:24;2.53;;;2.00;;
8594;SDS011;4335;48.860;9.198;2023-12-20T00:24:53;3.67;;;2.30;;
8594;SDS011;4335;48.860;9.198;2023-12-20T00:27:21;2.30;;;2.10;;
8594;SDS011;4335;48.860;9.198;2023-12-20T00:29:54;5.93;;;3.77;;
8594;SDS011;4335;48.860;9.198;2023-12-20T00:32:21;4.53;;;3.90;;
8594;SDS011;4335;48.860;9.198;2023-12-20T00:34:53;4.77;;;3.33;;
8594;SDS011;4335;48.860;9.198;2023-12-20T00:37:31;3.93;;;3.13;;
8594;SDS011;4335;48.860;9.198;2023-12-20T00:40:02;3.57;;;2.47;;
8594;SDS011;4335;48.860;9.198;2023-12-20T00:42:36;3.33;;;2.47;;
8594;SDS011;4335;48.860;9.198;2023-12-20T00:45:05;3.30;;;2.33;;
8594;SDS011;4335;48.860;9.198;2023-12-20T00:47:47;1.80;;;1.70;;
8594;SDS011;4335;48.860;9.198;2023-12-20T00:50:14;2.33;;;2.03;;
8594;SDS011;4335;48.860;9.198;2023-12-20T00:52:41;3.57;;;2.00;;
8594;SDS011;4335;48.860;9.198;2023-12-20T00:55:09;3.30;;;2.10;;
8594;SDS011;4335;48.860;9.198;2023-12-20T00:57:36;2.33;;;2.10;;
8594;SDS011;4335;48.860;9.198;2023-12-20T01:00:04;3.13;;;2.10;;
8594;SDS011;4335;48.860;9.198;2023-12-20T01:02:34;3.70;;;2.40;;
8594;SDS011;4335;48.860;9.198;2023-12-20T01:05:04;3.00;;;2.30;;
8594;SDS011;4335;48.860;9.198;2023-12-20T01:07:32;3.30;;;2.17;;
8594;SDS011;4335;48.860;9.198;2023-12-20T01:10:00;2.60;;;2.10;;
8594;SDS011;4335;48.860;9.198;2023-12-20T01:12:30;2.73;;;2.20;;
8594;SDS011;4335;48.860;9.198;2023-12-20T01:15:00;2.80;;;2.50;;
8594;SDS011;4335;48.860;9.198;2023-12-20T01:17:27;3.47;;;2.30;;
8594;SDS011;4335;48.860;9.198;2023-12-20T01:19:58;2.93;;;2.33;;
8594;SDS011;4335;48.860;9.198;2023-12-20T01:22:27;2.73;;;2.20;;
8594;SDS011;4335;48.860;9.198;2023-12-20T01:24:54;2.57;;;2.37;;
8594;SDS011;4335;48.860;9.198;2023-12-20T01:27:25;3.83;;;3.43;;
8594;SDS011;4335;48.860;9.198;2023-12-20T01:29:52;5.43;;;3.83;;
8594;SDS011;4335;48.860;9.198;2023-12-20T01:32:19;3.40;;;2.63;;
8594;SDS011;4335;48.860;9.198;2023-12-20T01:34:50;3.03;;;2.60;;
8594;SDS011;4335;48.860;9.198;2023-12-20T01:37:24;3.07;;;2.70;;
8594;SDS011;4335;48.860;9.198;2023-12-20T01:39:53;2.33;;;2.10;;
8594;SDS011;4335;48.860;9.198;2023-12-20T01:42:20;2.30;;;2.10;;
8594;SDS011;4335;48.860;9.198;2023-12-20T01:44:51;2.57;;;2.20;;
8594;SDS011;4335;48.860;9.198;2023-12-20T01:47:18;2.50;;;2.30;;
8594;SDS011;4335;48.860;9.198;2023-12-20T01:49:47;2.83;;;2.60;;
8594;SDS011;4335;48.860;9.198;2023-12-20T01:52:18;2.93;;;2.60;;
8594;SDS011;4335;48.860;9.198;2023-12-20T01:54:49;2.63;;;2.40;;
8594;SDS011;4335;48.860;9.198;2023-12-20T01:57:24;2.70;;;2.30;;
8594;SDS011;4335;48.860;9.198;2023-12-20T01:59:52;2.60;;;2.40;;
8594;SDS011;4335;48.860;9.198;2023-12-20T02:02:22;2.40;;;2.20;;
8594;SDS011;4335;48.860;9.198;2023-12-20T02:04:50;2.90;;;2.30;;
8594;SDS011;4335;48.860;9.198;2023-12-20T02:07:23;2.57;;;2.37;;
8594;SDS011;4335;48.860;9.198;2023-12-20T02:09:50;2.53;;;2.07;;
8594;SDS011;4335;48.860;9.198;2023-12-20T02:12:21;2.63;;;2.43;;
8594;SDS011;4335;48.860;9.198;2023-12-20T02:14:56;3.10;;;2.40;;
8594;SDS011;4335;48.860;9.198;2023-12-20T02:17:24;2.30;;;2.10;;
8594;SDS011;4335;48.860;9.198;2023-12-20T02:19:55;2.57;;;2.33;;
8594;SDS011;4335;48.860;9.198;2023-12-20T02:22:24;2.70;;;2.50;;
8594;SDS011;4335;48.860;9.198;2023-12-20T02:24:53;2.80;;;2.60;;
8594;SDS011;4335;48.860;9.198;2023-12-20T02:27:20;4.50;;;2.63;;
8594;SDS011;4335;48.860;9.198;2023-12-20T02:29:50;4.27;;;2.20;;
8594;SDS011;4335;48.860;9.198;2023-12-20T02:32:21;2.20;;;2.00;;
8594;SDS011;4335;48.860;9.198;2023-12-20T02:34:51;2.50;;;2.30;;
8594;SDS011;4335;48.860;9.198;2023-12-20T02:37:26;2.40;;;2.20;;
8594;SDS011;4335;48.860;9.198;2023-12-20T02:39:53;4.30;;;2.57;;
8594;SDS011;4335;48.860;9.198;2023-12-20T02:42:21;3.50;;;2.80;;
8594;SDS011;4335;48.860;9.198;2023-12-20T02:44:51;2.37;;;2.17;;
8594;SDS011;4335;48.860;9.198;2023-12-20T02:47:18;2.10;;;1.90;;
8594;SDS011;4335;48.860;9.198;2023-12-20T02:49:45;1.60;;;1.50;;
8594;SDS011;4335;48.860;9.198;2023-12-20T02:52:22;2.37;;;1.20;;
8594;SDS011;4335;48.860;9.198;2023-12-20T02:54:54;1.67;;;1.40;;
8594;SDS011;4335;48.860;9.198;2023-12-20T02:57:24;1.40;;;1.30;;
8594;SDS011;4335;48.860;9.198;2023-12-20T02:59:54;1.30;;;1.20;;
8594;SDS011;4335;48.860;9.198;2023-12-20T03:02:25;0.80;;;0.80;;
8594;SDS011;4335;48.860;9.198;2023-12-20T03:04:59;0.97;;;0.93;;
8594;SDS011;4335;48.860;9.198;2023-12-20T03:07:30;1.00;;;0.97;;
8594;SDS011;4335;48.860;9.198;2023-12-20T03:10:02;1.00;;;1.00;;
8594;SDS011;4335;48.860;9.198;2023-12-20T03:12:31;1.00;;;1.00;;
8594;SDS011;4335;48.860;9.198;2023-12-20T03:14:58;0.90;;;0.90;;
8594;SDS011;4335;48.860;9.198;2023-12-20T03:17:29;2.10;;;1.77;;
8594;SDS011;4335;48.860;9.198;2023-12-20T03:19:59;0.93;;;0.93;;
8594;SDS011;4335;48.860;9.198;2023-12-20T03:22:27;0.93;;;0.87;;
8594;SDS011;4335;48.860;9.198;2023-12-20T03:24:57;1.10;;;1.00;;
8594;SDS011;4335;48.860;9.198;2023-12-20T03:27:26;1.77;;;1.10;;
8594;SDS011;4335;48.860;9.198;2023-12-20T03:29:53;1.27;;;1.00;;
8594;SDS011;4335;48.860;9.198;2023-12-20T03:32:21;1.00;;;0.90;;
8594;SDS011;4335;48.860;9.198;2023-12-20T03:34:51;1.00;;;0.90;;
8594;SDS011;4335;48.860;9.198;2023-12-20T03:37:18;0.90;;;0.90;;
8594;SDS011;4335;48.860;9.198;2023-12-20T03:39:52;1.20;;;1.10;;
8594;SDS011;4335;48.860;9.198;2023-12-20T03:42:19;1.00;;;1.00;;
8594;SDS011;4335;48.860;9.198;2023-12-20T03:44:51;1.00;;;1.00;;
8594;SDS011;4335;48.860;9.198;2023-12-20T03:47:21;1.27;;;1.17;;
8594;SDS011;4335;48.860;9.198;2023-12-20T03:49:49;1.57;;;0.97;;
8594;SDS011;4335;48.860;9.198;2023-12-20T03:52:32;0.90;;;0.90;;
8594;SDS011;4335;48.860;9.198;2023-12-20T03:54:59;1.20;;;1.10;;
8594;SDS011;4335;48.860;9.198;2023-12-20T03:57:26;0.90;;;0.90;;
8594;SDS011;4335;48.860;9.198;2023-12-20T03:59:55;1.13;;;1.10;;
8594;SDS011;4335;48.860;9.198;2023-12-20T04:02:28;0.97;;;0.97;;
8594;SDS011;4335;48.860;9.198;2023-12-20T04:04:56;1.00;;;1.00;;
8594;SDS011;4335;48.860;9.198;2023-12-20T04:07:26;1.20;;;1.10;;
8594;SDS011;4335;48.860;9.198;2023-12-20T04:09:58;1.63;;;1.00;;
8594;SDS011;4335;48.860;9.198;2023-12-20T04:12:25;1.10;;;1.00;;
8594;SDS011;4335;48.860;9.198;2023-12-20T04:14:53;0.90;;;0.90;;
8594;SDS011;4335;48.860;9.198;2023-12-20T04:17:25;1.17;;;1.07;;
8594;SDS011;4335;48.860;9.198;2023-12-20T04:19:59;0.87;;;0.87;;
8594;SDS011;4335;48.860;9.198;2023-12-20T04:22:26;1.10;;;1.10;;
8594;SDS011;4335;48.860;9.198;2023-12-20T04:24:53;2.70;;;0.90;;
8594;SDS011;4335;48.860;9.198;2023-12-20T04:27:23;1.70;;;1.13;;
8594;SDS011;4335;48.860;9.198;2023-12-20T04:29:58;0.90;;;0.90;;
8594;SDS011;4335;48.860;9.198;2023-12-20T04:32:25;0.97;;;0.93;;
8594;SDS011;4335;48.860;9.198;2023-12-20T04:34:58;0.90;;;0.90;;
8594;SDS011;4335;48.860;9.198;2023-12-20T04:37:26;1.00;;;1.00;;
8594;SDS011;4335;48.860;9.198;2023-12-20T04:39:53;1.20;;;1.10;;
8594;SDS011;4335;48.860;9.198;2023-12-20T04:42:26;1.10;;;1.10;;
8594;SDS011;4335;48.860;9.198;2023-12-20T04:44:58;1.93;;;1.00;;
8594;SDS011;4335;48.860;9.198;2023-12-20T04:47:28;1.20;;;1.10;;
8594;SDS011;4335;48.860;9.198;2023-12-20T04:49:56;1.20;;;1.13;;
8594;SDS011;4335;48.860;9.198;2023-12-20T04:52:26;1.30;;;1.20;;
8594;SDS011;4335;48.860;9.198;2023-12-20T04:54:53;1.10;;;1.00;;
8594;SDS011;4335;48.860;9.198;2023-12-20T04:57:24;0.97;;;0.97;;
8594;SDS011;4335;48.860;9.198;2023-12-20T04:59:51;2.30;;;1.27;;
8594;SDS011;4335;48.860;9.198;2023-12-20T05:02:20;1.20;;;1.10;;
8594;SDS011;4335;48.860;9.198;2023-12-20T05:04:48;1.20;;;1.10;;
8594;SDS011;4335;48.860;9.198;2023-12-20T05:07:18;1.67;;;1.33;;
8594;SDS011;4335;48.860;9.198;2023-12-20T05:09:48;1.20;;;1.10;;
8594;SDS011;4335;48.860;9.198;2023-12-20T05:12:16;0.93;;;0.80;;
8594;SDS011;4335;48.860;9.198;2023-12-20T05:14:43;1.00;;;1.00;;
8594;SDS011;4335;48.860;9.198;2023-12-20T05:17:13;0.97;;;0.97;;
8594;SDS011;4335;48.860;9.198;2023-12-20T05:19:43;1.30;;;1.20;;
8594;SDS011;4335;48.860;9.198;2023-12-20T05:22:16;1.20;;;1.10;;
8594;SDS011;4335;48.860;9.198;2023-12-20T05:24:45;1.40;;;1.30;;
8594;SDS011;4335;48.860;9.198;2023-12-20T05:27:12;1.30;;;1.20;;
8594;SDS011;4335;48.860;9.198;2023-12-20T05:29:42;1.40;;;1.30;;
8594;SDS011;4335;48.860;9.198;2023-12-20T05:32:16;1.37;;;1.27;;
8594;SDS011;4335;48.860;9.198;2023-12-20T05:34:45;1.37;;;1.10;;
8594;SDS011;4335;48.860;9.198;2023-12-20T05:37:12;1.70;;;1.30;;
8594;SDS011;4335;48.860;9.198;2023-12-20T05:39:40;1.50;;;1.40;;
8594;SDS011;4335;48.860;9.198;2023-12-20T05:42:10;1.43;;;1.33;;
8594;SDS011;4335;48.860;9.198;2023-12-20T05:44:44;2.37;;;1.80;;
8594;SDS011;4335;48.860;9.198;2023-12-20T05:47:11;1.80;;;1.70;;
8594;SDS011;4335;48.860;9.198;2023-12-20T05:49:38;1.70;;;1.60;;
8594;SDS011;4335;48.860;9.198;2023-12-20T05:54:52;3.30;;;2.13;;
8594;SDS011;4335;48.860;9.198;2023-12-20T05:57:23;2.57;;;1.80;;
8594;SDS011;4335;48.860;9.198;2023-12-20T05:59:51;1.90;;;1.80;;
8594;SDS011;4335;48.860;9.198;2023-12-20T06:02:18;2.13;;;1.70;;
8594;SDS011;4335;48.860;9.198;2023-12-20T06:04:46;2.30;;;1.63;;
8594;SDS011;4335;48.860;9.198;2023-12-20T06:07:14;2.20;;;1.63;;
8594;SDS011;4335;48.860;9.198;2023-12-20T06:09:43;3.03;;;1.67;;
8594;SDS011;4335;48.860;9.198;2023-12-20T06:12:13;2.50;;;2.07;;
8594;SDS011;4335;48.860;9.198;2023-12-20T06:14:47;2.20;;;2.00;;
8594;SDS011;4335;48.860;9.198;2023-12-20T06:17:14;2.37;;;1.70;;
8594;SDS011;4335;48.860;9.198;2023-12-20T06:19:44;1.83;;;1.67;;
8594;SDS011;4335;48.860;9.198;2023-12-20T06:22:13;1.70;;;1.60;;
8594;SDS011;4335;48.860;9.198;2023-12-20T06:24:40;3.23;;;1.83;;
8594;SDS011;4335;48.860;9.198;2023-12-20T06:27:15;2.50;;;1.80;;
8594;SDS011;4335;48.860;9.198;2023-12-20T06:29:43;2.37;;;1.60;;
8594;SDS011;4335;48.860;9.198;2023-12-20T06:32:13;1.70;;;1.60;;
8594;SDS011;4335;48.860;9.198;2023-12-20T06:34:41;2.33;;;1.73;;
8594;SDS011;4335;48.860;9.198;2023-12-20T06:37:08;4.03;;;2.50;;
8594;SDS011;4335;48.860;9.198;2023-12-20T06:39:43;1.97;;;1.70;;
8594;SDS011;4335;48.860;9.198;2023-12-20T06:42:11;2.80;;;2.23;;
8594;SDS011;4335;48.860;9.198;2023-12-20T06:44:42;2.77;;;2.33;;
8594;SDS011;4335;48.860;9.198;2023-12-20T06:47:09;2.53;;;2.00;;
8594;SDS011;4335;48.860;9.198;2023-12-20T06:49:36;2.60;;;2.40;;
8594;SDS011;4335;48.860;9.198;2023-12-20T06:52:07;2.83;;;2.60;;
8594;SDS011;4335;48.860;9.198;2023-12-20T06:54:34;2.90;;;2.50;;
8594;SDS011;4335;48.860;9.198;2023-12-20T06:57:03;2.10;;;2.00;;
8594;SDS011;4335;48.860;9.198;2023-12-20T06:59:38;2.90;;;2.30;;
8594;SDS011;4335;48.860;9.198;2023-12-20T07:02:06;2.73;;;2.53;;
8594;SDS011;4335;48.860;9.198;2023-12-20T07:04:38;3.70;;;2.50;;
8594;SDS011;4335;48.860;9.198;2023-12-20T07:07:09;2.90;;;2.70;;
8594;SDS011;4335;48.860;9.198;2023-12-20T07:09:39;2.97;;;2.77;;
8594;SDS011;4335;48.860;9.198;2023-12-20T07:12:09;3.47;;;3.17;;
8594;SDS011;4335;48.860;9.198;2023-12-20T07:14:37;4.27;;;3.43;;
8594;SDS011;4335;48.860;9.198;2023-12-20T07:17:07;4.60;;;4.20;;
8594;SDS011;4335;48.860;9.198;2023-12-20T07:19:36;4.60;;;4.20;;
8594;SDS011;4335;48.860;9.198;2023-12-20T07:22:07;5.83;;;4.00;;
8594;SDS011;4335;48.860;9.198;2023-12-20T07:24:35;4.00;;;3.67;;
8594;SDS011;4335;48.860;9.198;2023-12-20T07:27:02;4.50;;;4.07;;
8594;SDS011;4335;48.860;9.198;2023-12-20T07:29:37;4.27;;;3.97;;
8594;SDS011;4335;48.860;9.198;2023-12-20T07:32:05;4.00;;;3.60;;
8594;SDS011;4335;48.860;9.198;2023-12-20T07:34:35;3.60;;;3.27;;
8594;SDS011;4335;48.860;9.198;2023-12-20T07:37:03;3.77;;;3.47;;
8594;SDS011;4335;48.860;9.198;2023-12-20T07:39:38;2.90;;;2.70;;
8594;SDS011;4335;48.860;9.198;2023-12-20T07:42:06;6.27;;;4.00;;
8594;SDS011;4335;48.860;9.198;2023-12-20T07:44:34;3.50;;;3.20;;
8594;SDS011;4335;48.860;9.198;2023-12-20T07:47:07;3.27;;;2.97;;
8594;SDS011;4335;48.860;9.198;2023-12-20T07:49:39;3.10;;;2.90;;
8594;SDS011;4335;48.860;9.198;2023-12-20T07:52:12;3.40;;;3.10;;
8594;SDS011;4335;48.860;9.198;2023-12-20T07:54:40;3.30;;;3.03;;
8594;SDS011;4335;48.860;9.198;2023-12-20T07:57:10;3.30;;;3.00;;
8594;SDS011;4335;48.860;9.198;2023-12-20T07:59:37;3.13;;;2.93;;
8594;SDS011;4335;48.860;9.198;2023-12-20T08:02:08;3.43;;;3.13;;
8594;SDS011;4335;48.860;9.198;2023-12-20T08:04:36;4.83;;;3.60;;
8594;SDS011;4335;48.860;9.198;2023-12-20T08:07:04;3.33;;;3.03;;
8594;SDS011;4335;48.860;9.198;2023-12-20T08:09:31;4.93;;;3.47;;
8594;SDS011;4335;48.860;9.198;2023-12-20T08:11:59;4.70;;;3.43;;
8594;SDS011;4335;48.860;9.198;2023-12-20T08:14:33;4.40;;;3.53;;
8594;SDS011;4335;48.860;9.198;2023-12-20T08:17:00;4.73;;;4.30;;
8594;SDS011;4335;48.860;9.198;2023-12-20T08:19:29;3.87;;;3.50;;
8594;SDS011;4335;48.860;9.198;2023-12-20T08:21:59;3.70;;;3.40;;
8594;SDS011;4335;48.860;9.198;2023-12-20T08:24:27;3.40;;;3.10;;
8594;SDS011;4335;48.860;9.198;2023-12-20T08:26:59;3.57;;;3.20;;
8594;SDS011;4335;48.860;9.198;2023-12-20T08:29:26;3.30;;;3.10;;
8594;SDS011;4335;48.860;9.198;2023-12-20T08:31:54;3.80;;;3.30;;
8594;SDS011;4335;48.860;9.198;2023-12-20T08:34:22;4.23;;;3.37;;
8594;SDS011;4335;48.860;9.198;2023-12-20T08:36:57;4.43;;;3.47;;
8594;SDS011;4335;48.860;9.198;2023-12-20T08:39:24;3.60;;;3.30;;
8594;SDS011;4335;48.860;9.198;2023-12-20T08:41:52;4.77;;;3.33;;
8594;SDS011;4335;48.860;9.198;2023-12-20T08:44:29;3.30;;;3.00;;
8594;SDS011;4335;48.860;9.198;2023-12-20T08:47:05;4.37;;;3.57;;
8594;SDS011;4335;48.860;9.198;2023-12-20T08:49:34;3.30;;;3.00;;
8594;SDS011;4335;48.860;9.198;2023-12-20T08:52:02;3.03;;;2.57;;
8594;SDS011;4335;48.860;9.198;2023-12-20T08:54:32;3.30;;;3.10;;
8594;SDS011;4335;48.860;9.198;2023-12-20T08:57:03;3.63;;;3.33;;
8594;SDS011;4335;48.860;9.198;2023-12-20T08:59:32;4.03;;;3.23;;
8594;SDS011;4335;48.860;9.198;2023-12-20T09:01:59;5.03;;;3.03;;
8594;SDS011;4335;48.860;9.198;2023-12-20T09:04:27;4.00;;;3.70;;
8594;SDS011;4335;48.860;9.198;2023-12-20T09:06:56;3.97;;;3.30;;
8594;SDS011;4335;48.860;9.198;2023-12-20T09:09:26;5.77;;;3.60;;
8594;SDS011;4335;48.860;9.198;2023-12-20T09:11:56;3.40;;;3.00;;
8594;SDS011;4335;48.860;9.198;2023-12-20T09:14:24;3.33;;;3.03;;
8594;SDS011;4335;48.860;9.198;2023-12-20T09:16:51;3.50;;;3.20;;
8594;SDS011;4335;48.860;9.198;2023-12-20T09:19:23;3.47;;;2.83;;
8594;SDS011;4335;48.860;9.198;2023-12-20T09:21:58;5.43;;;3.30;;
8594;SDS011;4335;48.860;9.198;2023-12-20T09:24:25;3.70;;;3.10;;
8594;SDS011;4335;48.860;9.198;2023-12-20T09:26:55;4.17;;;3.40;;
8594;SDS011;4335;48.860;9.198;2023-12-20T09:29:23;3.40;;;3.07;;
8594;SDS011;4335;48.860;9.198;2023-12-20T09:31:50;3.67;;;2.87;;
8594;SDS011;4335;48.860;9.198;2023-12-20T09:34:18;4.57;;;2.60;;
8594;SDS011;4335;48.860;9.198;2023-12-20T09:36:46;3.77;;;2.63;;
8594;SDS011;4335;48.860;9.198;2023-12-20T09:39:16;3.17;;;2.87;;
8594;SDS011;4335;48.860;9.198;2023-12-20T09:41:46;2.80;;;2.30;;
8594;SDS011;4335;48.860;9.198;2023-12-20T09:44:24;2.80;;;2.57;;
8594;SDS011;4335;48.860;9.198;2023-12-20T09:46:54;4.07;;;2.77;;
8594;SDS011;4335;48.860;9.198;2023-12-20T09:49:22;4.07;;;2.33;;
8594;SDS011;4335;48.860;9.198;2023-12-20T09:51:56;3.77;;;2.53;;
8594;SDS011;4335;48.860;9.198;2023-12-20T09:54:25;4.20;;;2.53;;
8594;SDS011;4335;48.860;9.198;2023-12-20T09:56:55;3.00;;;2.23;;
8594;SDS011;4335;48.860;9.198;2023-12-20T09:59:23;4.20;;;2.83;;
8594;SDS011;4335;48.860;9.198;2023-12-20T10:01:50;7.60;;;2.57;;
8594;SDS011;4335;48.860;9.198;2023-12-20T10:04:21;4.23;;;2.47;;
8594;SDS011;4335;48.860;9.198;2023-12-20T10:06:49;4.90;;;2.30;;
8594;SDS011;4335;48.860;9.198;2023-12-20T10:09:17;3.80;;;1.87;;
8594;SDS011;4335;48.860;9.198;2023-12-20T10:11:49;7.13;;;2.67;;
8594;SDS011;4335;48.860;9.198;2023-12-20T10:14:23;3.13;;;2.10;;
8594;SDS011;4335;48.860;9.198;2023-12-20T10:16:53;3.10;;;1.90;;
8594;SDS011;4335;48.860;9.198;2023-12-20T10:19:28;4.47;;;2.30;;
8594;SDS011;4335;48.860;9.198;2023-12-20T10:21:55;4.70;;;2.00;;
8594;SDS011;4335;48.860;9.198;2023-12-20T10:24:24;3.53;;;2.23;;
8594;SDS011;4335;48.860;9.198;2023-12-20T10:27:02;3.97;;;2.23;;
8594;SDS011;4335;48.860;9.198;2023-12-20T10:29:36;2.77;;;1.83;;
8594;SDS011;4335;48.860;9.198;2023-12-20T10:34:54;4.37;;;2.23;;
8594;SDS011;4335;48.860;9.198;2023-12-20T10:37:25;3.47;;;2.10;;
8594;SDS011;4335;48.860;9.198;2023-12-20T10:39:53;4.10;;;2.00;;
8594;SDS011;4335;48.860;9.198;2023-12-20T10:42:27;4.17;;;2.40;;
8594;SDS011;4335;48.860;9.198;2023-12-20T10:44:56;3.07;;;2.00;;
8594;SDS011;4335;48.860;9.198;2023-12-20T10:47:31;6.77;;;2.47;;
8594;SDS011;4335;48.860;9.198;2023-12-20T10:49:59;6.50;;;2.40;;
8594;SDS011;4335;48.860;9.198;2023-12-20T10:52:28;3.53;;;2.30;;
8594;SDS011;4335;48.860;9.198;2023-12-20T10:54:59;3.33;;;2.50;;
8594;SDS011;4335;48.860;9.198;2023-12-20T10:57:28;5.20;;;2.33;;
8594;SDS011;4335;48.860;9.198;2023-12-20T10:59:56;3.73;;;2.20;;
8594;SDS011;4335;48.860;9.198;2023-12-20T11:02:39;5.03;;;3.13;;
8594;SDS011;4335;48.860;9.198;2023-12-20T11:05:13;7.87;;;3.43;;
8594;SDS011;4335;48.860;9.198;2023-12-20T11:07:58;3.17;;;2.30;;
8594;SDS011;4335;48.860;9.198;2023-12-20T11:10:37;5.73;;;3.90;;
8594;SDS011;4335;48.860;9.198;2023-12-20T11:13:16;3.83;;;2.17;;
8594;SDS011;4335;48.860;9.198;2023-12-20T11:15:47;5.03;;;2.07;;
8594;SDS011;4335;48.860;9.198;2023-12-20T11:18:28;3.83;;;2.10;;
8594;SDS011;4335;48.860;9.198;2023-12-20T11:20:57;3.70;;;2.77;;
8594;SDS011;4335;48.860;9.198;2023-12-20T11:23:29;4.00;;;1.90;;
8594;SDS011;4335;48.860;9.198;2023-12-20T11:26:01;4.40;;;1.90;;
8594;SDS011;4335;48.860;9.198;2023-12-20T11:28:30;5.80;;;2.37;;
8594;SDS011;4335;48.860;9.198;2023-12-20T11:31:01;5.80;;;1.77;;
8594;SDS011;4335;48.860;9.198;2023-12-20T11:33:35;4.30;;;2.77;;
8594;SDS011;4335;48.860;9.198;2023-12-20T11:36:07;4.30;;;2.70;;
8594;SDS011;4335;48.860;9.198;2023-12-20T11:38:48;4.03;;;2.90;;
8594;SDS011;4335;48.860;9.198;2023-12-20T11:41:21;5.43;;;2.90;;
8594;SDS011;4335;48.860;9.198;2023-12-20T11:43:51;2.47;;;1.90;;
8594;SDS011;4335;48.860;9.198;2023-12-20T11:46:23;5.33;;;2.43;;
8594;SDS011;4335;48.860;9.198;2023-12-20T11:48:50;3.67;;;2.27;;
8594;SDS011;4335;48.860;9.198;2023-12-20T11:51:17;5.93;;;1.90;;
8594;SDS011;4335;48.860;9.198;2023-12-20T11:53:45;8.60;;;3.30;;
8594;SDS011;4335;48.860;9.198;2023-12-20T11:56:21;7.30;;;3.03;;
8594;SDS011;4335;48.860;9.198;2023-12-20T11:58:53;3.60;;;2.50;;
8594;SDS011;4335;48.860;9.198;2023-12-20T12:01:22;5.30;;;3.00;;
8594;SDS011;4335;48.860;9.198;2023-12-20T12:04:04;5.67;;;3.97;;
8594;SDS011;4335;48.860;9.198;2023-12-20T12:06:32;6.10;;;3.10;;
8594;SDS011;4335;48.860;9.198;2023-12-20T12:09:06;6.57;;;3.00;;
8594;SDS011;4335;48.860;9.198;2023-12-20T12:11:33;4.30;;;2.93;;
8594;SDS011;4335;48.860;9.198;2023-12-20T12:14:01;5.70;;;3.27;;
8594;SDS011;4335;48.860;9.198;2023-12-20T12:16:29;6.97;;;3.47;;
8594;SDS011;4335;48.860;9.198;2023-12-20T12:18:57;5.07;;;3.13;;
8594;SDS011;4335;48.860;9.198;2023-12-20T12:21:25;4.87;;;2.93;;
8594;SDS011;4335;48.860;9.198;2023-12-20T12:23:53;6.30;;;3.17;;
8594;SDS011;4335;48.860;9.198;2023-12-20T12:26:20;6.03;;;2.80;;
8594;SDS011;4335;48.860;9.198;2023-12-20T12:28:52;6.97;;;4.50;;
8594;SDS011;4335;48.860;9.198;2023-12-20T12:31:24;4.33;;;2.37;;
8594;SDS011;4335;48.860;9.198;2023-12-20T12:33:52;5.20;;;2.97;;
8594;SDS011;4335;48.860;9.198;2023-12-20T12:36:28;5.80;;;2.23;;
8594;SDS011;4335;48.860;9.198;2023-12-20T12:38:56;14.80;;;8.77;;
8594;SDS011;4335;48.860;9.198;2023-12-20T12:41:26;4.67;;;3.07;;
8594;SDS011;4335;48.860;9.198;2023-12-20T12:43:55;4.23;;;1.80;;
8594;SDS011;4335;48.860;9.198;2023-12-20T12:46:30;4.90;;;2.30;;
8594;SDS011;4335;48.860;9.198;2023-12-20T12:48:58;5.53;;;2.20;;
8594;SDS011;4335;48.860;9.198;2023-12-20T12:51:26;5.33;;;2.47;;
8594;SDS011;4335;48.860;9.198;2023-12-20T12:53:53;3.53;;;1.93;;
8594;SDS011;4335;48.860;9.198;2023-12-20T12:56:23;6.30;;;3.03;;
8594;SDS011;4335;48.860;9.198;2023-12-20T12:58:50;4.93;;;2.93;;
8594;SDS011;4335;48.860;9.198;2023-12-20T13:01:18;3.57;;;2.00;;
8594;SDS011;4335;48.860;9.198;2023-12-20T13:03:50;3.83;;;2.60;;
8594;SDS011;4335;48.860;9.198;2023-12-20T13:06:19;6.97;;;3.87;;
8594;SDS011;4335;48.860;9.198;2023-12-20T13:08:47;4.07;;;2.67;;
8594;SDS011;4335;48.860;9.198;2023-12-20T13:11:14;4.47;;;2.93;;
8594;SDS011;4335;48.860;9.198;2023-12-20T13:13:42;2.90;;;1.60;;
8594;SDS011;4335;48.860;9.198;2023-12-20T13:16:13;5.93;;;2.43;;
8594;SDS011;4335;48.860;9.198;2023-12-20T13:18:40;8.23;;;2.27;;
8594;SDS011;4335;48.860;9.198;2023-12-20T13:21:12;8.33;;;4.47;;
8594;SDS011;4335;48.860;9.198;2023-12-20T13:23:40;5.57;;;3.10;;
8594;SDS011;4335;48.860;9.198;2023-12-20T13:26:07;4.47;;;3.40;;
8594;SDS011;4335;48.860;9.198;2023-12-20T13:28:35;5.13;;;2.70;;
8594;SDS011;4335;48.860;9.198;2023-12-20T13:31:02;3.90;;;2.17;;
8594;SDS011;4335;48.860;9.198;2023-12-20T13:33:30;3.97;;;2.50;;
8594;SDS011;4335;48.860;9.198;2023-12-20T13:35:57;5.20;;;3.10;;
8594;SDS011;4335;48.860;9.198;2023-12-20T13:38:26;4.40;;;2.40;;
8594;SDS011;4335;48.860;9.198;2023-12-20T13:40:53;6.07;;;2.53;;
8594;SDS011;4335;48.860;9.198;2023-12-20T13:43:26;5.23;;;2.40;;
8594;SDS011;4335;48.860;9.198;2023-12-20T13:45:53;5.33;;;2.37;;
8594;SDS011;4335;48.860;9.198;2023-12-20T13:48:21;2.77;;;1.90;;
8594;SDS011;4335;48.860;9.198;2023-12-20T13:50:49;2.77;;;1.63;;
8594;SDS011;4335;48.860;9.198;2023-12-20T13:53:16;1.90;;;1.70;;
8594;SDS011;4335;48.860;9.198;2023-12-20T13:55:45;3.70;;;2.00;;
8594;SDS011;4335;48.860;9.198;2023-12-20T13:58:13;6.03;;;2.03;;
8594;SDS011;4335;48.860;9.198;2023-12-20T14:00:49;2.23;;;1.77;;
8594;SDS011;4335;48.860;9.198;2023-12-20T14:03:17;3.60;;;2.77;;
8594;SDS011;4335;48.860;9.198;2023-12-20T14:05:45;4.03;;;2.20;;
8594;SDS011;4335;48.860;9.198;2023-12-20T14:08:12;5.47;;;2.80;;
8594;SDS011;4335;48.860;9.198;2023-12-20T14:10:39;2.90;;;2.17;;
8594;SDS011;4335;48.860;9.198;2023-12-20T14:13:08;3.37;;;2.13;;
8594;SDS011;4335;48.860;9.198;2023-12-20T14:15:36;4.53;;;3.17;;
8594;SDS011;4335;48.860;9.198;2023-12-20T14:18:04;6.60;;;3.20;;
8594;SDS011;4335;48.860;9.198;2023-12-20T14:20:33;4.13;;;2.30;;
8594;SDS011;4335;48.860;9.198;2023-12-20T14:23:04;8.23;;;4.43;;
8594;SDS011;4335;48.860;9.198;2023-12-20T14:25:35;6.70;;;2.80;;
8594;SDS011;4335;48.860;9.198;2023-12-20T14:28:03;5.17;;;2.73;;
8594;SDS011;4335;48.860;9.198;2023-12-20T14:30:33;3.70;;;2.60;;
8594;SDS011;4335;48.860;9.198;2023-12-20T14:33:08;9.17;;;4.50;;
8594;SDS011;4335;48.860;9.198;2023-12-20T14:35:38;5.83;;;4.40;;
8594;SDS011;4335;48.860;9.198;2023-12-20T14:38:07;7.43;;;2.53;;
8594;SDS011;4335;48.860;9.198;2023-12-20T14:40:38;7.53;;;2.60;;
8594;SDS011;4335;48.860;9.198;2023-12-20T14:43:09;4.73;;;2.83;;
8594;SDS011;4335;48.860;9.198;2023-12-20T14:45:38;6.10;;;2.80;;
8594;SDS011;4335;48.860;9.198;2023-12-20T14:48:05;4.50;;;2.20;;
8594;SDS011;4335;48.860;9.198;2023-12-20T14:50:33;5.33;;;2.43;;
8594;SDS011;4335;48.860;9.198;2023-12-20T14:53:06;4.87;;;2.50;;
8594;SDS011;4335;48.860;9.198;2023-12-20T14:55:36;5.07;;;1.77;;
8594;SDS011;4335;48.860;9.198;2023-12-20T14:58:04;5.50;;;2.70;;
8594;SDS011;4335;48.860;9.198;2023-12-20T15:00:35;3.27;;;2.00;;
8594;SDS011;4335;48.860;9.198;2023-12-20T15:03:04;5.50;;;2.10;;
8594;SDS011;4335;48.860;9.198;2023-12-20T15:05:32;3.77;;;2.37;;
8594;SDS011;4335;48.860;9.198;2023-12-20T15:10:39;4.97;;;2.00;;
8594;SDS011;4335;48.860;9.198;2023-12-20T15:13:10;5.57;;;2.80;;
8594;SDS011;4335;48.860;9.198;2023-12-20T15:15:37;5.23;;;2.77;;
8594;SDS011;4335;48.860;9.198;2023-12-20T15:18:06;4.53;;;3.43;;
8594;SDS011;4335;48.860;9.198;2023-12-20T15:20:34;6.40;;;3.83;;
8594;SDS011;4335;48.860;9.198;2023-12-20T15:23:02;5.27;;;2.60;;
8594;SDS011;4335;48.860;9.198;2023-12-20T15:25:41;9.97;;;6.10;;
8594;SDS011;4335;48.860;9.198;2023-12-20T15:28:09;5.97;;;5.37;;
8594;SDS011;4335;48.860;9.198;2023-12-20T15:30:36;8.87;;;3.40;;
8594;SDS011;4335;48.860;9.198;2023-12-20T15:33:04;6.27;;;3.97;;
8594;SDS011;4335;48.860;9.198;2023-12-20T15:35:33;6.83;;;3.03;;
8594;SDS011;4335;48.860;9.198;2023-12-20T15:38:00;6.13;;;3.33;;